sensor_id;sensor_type;location;lat;lon;timestamp;temperature;humidity
38684;DHT22;24910;53.248;-6.134;2023-09-19T00:02:07;15.10;89.10
38684;DHT22;24910;53.248;-6.134;2023-09-19T00:04:36;15.10;89.10
38684;DHT22;24910;53.248;-6.134;2023-09-19T00:07:07;15.00;89.30
38684;DHT22;24910;53.248;-6.134;2023-09-19T00:09:36;15.00;89.30
38684;DHT22;24910;53.248;-6.134;2023-09-19T00:12:06;15.00;89.30
38684;DHT22;24910;53.248;-6.134;2023-09-19T00:14:38;15.00;89.30
38684;DHT22;24910;53.248;-6.134;2023-09-19T00:17:07;15.00;89.40
38684;DHT22;24910;53.248;-6.134;2023-09-19T00:19:37;15.00;89.40
38684;DHT22;24910;53.248;-6.134;2023-09-19T00:22:06;15.00;89.40
38684;DHT22;24910;53.248;-6.134;2023-09-19T00:24:35;15.00;89.50
38684;DHT22;24910;53.248;-6.134;2023-09-19T00:27:04;15.00;89.40
38684;DHT22;24910;53.248;-6.134;2023-09-19T00:29:33;15.00;89.50
38684;DHT22;24910;53.248;-6.134;2023-09-19T00:32:06;14.90;89.40
38684;DHT22;24910;53.248;-6.134;2023-09-19T00:34:36;15.00;89.40
38684;DHT22;24910;53.248;-6.134;2023-09-19T00:37:05;15.00;89.30
38684;DHT22;24910;53.248;-6.134;2023-09-19T00:39:34;15.00;89.30
38684;DHT22;24910;53.248;-6.134;2023-09-19T00:42:03;15.00;89.20
38684;DHT22;24910;53.248;-6.134;2023-09-19T00:44:32;15.00;89.30
38684;DHT22;24910;53.248;-6.134;2023-09-19T00:47:02;15.00;89.20
38684;DHT22;24910;53.248;-6.134;2023-09-19T00:49:33;15.00;89.30
38684;DHT22;24910;53.248;-6.134;2023-09-19T00:52:03;15.00;89.20
38684;DHT22;24910;53.248;-6.134;2023-09-19T00:54:33;15.00;89.10
38684;DHT22;24910;53.248;-6.134;2023-09-19T00:57:03;15.10;89.20
38684;DHT22;24910;53.248;-6.134;2023-09-19T00:59:32;15.10;89.20
38684;DHT22;24910;53.248;-6.134;2023-09-19T01:02:03;15.10;89.20
38684;DHT22;24910;53.248;-6.134;2023-09-19T01:04:33;15.10;89.30
38684;DHT22;24910;53.248;-6.134;2023-09-19T01:07:03;15.10;89.20
38684;DHT22;24910;53.248;-6.134;2023-09-19T01:09:32;15.00;89.30
38684;DHT22;24910;53.248;-6.134;2023-09-19T01:12:02;15.00;89.30
38684;DHT22;24910;53.248;-6.134;2023-09-19T01:14:34;15.10;89.40
38684;DHT22;24910;53.248;-6.134;2023-09-19T01:17:08;15.00;89.40
38684;DHT22;24910;53.248;-6.134;2023-09-19T01:22:32;15.10;89.40
38684;DHT22;24910;53.248;-6.134;2023-09-19T01:25:20;15.10;89.40
38684;DHT22;24910;53.248;-6.134;2023-09-19T01:30:42;15.00;89.60
38684;DHT22;24910;53.248;-6.134;2023-09-19T01:33:12;14.90;89.60
38684;DHT22;24910;53.248;-6.134;2023-09-19T01:35:42;14.90;89.80
38684;DHT22;24910;53.248;-6.134;2023-09-19T01:38:11;14.80;89.80
38684;DHT22;24910;53.248;-6.134;2023-09-19T01:40:43;14.80;90.00
38684;DHT22;24910;53.248;-6.134;2023-09-19T01:43:14;14.80;90.10
38684;DHT22;24910;53.248;-6.134;2023-09-19T01:45:50;14.80;90.10
38684;DHT22;24910;53.248;-6.134;2023-09-19T01:48:23;14.70;90.10
38684;DHT22;24910;53.248;-6.134;2023-09-19T01:50:55;14.70;90.10
38684;DHT22;24910;53.248;-6.134;2023-09-19T01:53:26;14.70;90.20
38684;DHT22;24910;53.248;-6.134;2023-09-19T01:55:58;14.70;90.20
38684;DHT22;24910;53.248;-6.134;2023-09-19T01:58:31;14.70;90.20
38684;DHT22;24910;53.248;-6.134;2023-09-19T02:01:03;14.60;90.20
38684;DHT22;24910;53.248;-6.134;2023-09-19T02:03:34;14.60;90.20
38684;DHT22;24910;53.248;-6.134;2023-09-19T02:06:04;14.60;90.30
38684;DHT22;24910;53.248;-6.134;2023-09-19T02:08:38;14.60;90.30
38684;DHT22;24910;53.248;-6.134;2023-09-19T02:11:07;14.60;90.30
38684;DHT22;24910;53.248;-6.134;2023-09-19T02:13:36;14.60;90.30
38684;DHT22;24910;53.248;-6.134;2023-09-19T02:16:08;14.60;90.30
38684;DHT22;24910;53.248;-6.134;2023-09-19T02:18:39;14.60;90.30
38684;DHT22;24910;53.248;-6.134;2023-09-19T02:21:08;14.60;90.30
38684;DHT22;24910;53.248;-6.134;2023-09-19T02:23:40;14.60;90.50
38684;DHT22;24910;53.248;-6.134;2023-09-19T02:26:09;14.60;90.30
38684;DHT22;24910;53.248;-6.134;2023-09-19T02:28:39;14.60;90.30
38684;DHT22;24910;53.248;-6.134;2023-09-19T02:31:11;14.60;90.30
38684;DHT22;24910;53.248;-6.134;2023-09-19T02:33:40;14.60;90.30
38684;DHT22;24910;53.248;-6.134;2023-09-19T02:36:12;14.60;90.70
38684;DHT22;24910;53.248;-6.134;2023-09-19T02:38:45;14.60;90.30
38684;DHT22;24910;53.248;-6.134;2023-09-19T02:41:17;14.70;90.30
38684;DHT22;24910;53.248;-6.134;2023-09-19T02:43:46;14.60;90.70
38684;DHT22;24910;53.248;-6.134;2023-09-19T02:46:16;14.60;90.30
38684;DHT22;24910;53.248;-6.134;2023-09-19T02:48:46;14.60;90.30
38684;DHT22;24910;53.248;-6.134;2023-09-19T02:51:16;14.60;90.70
38684;DHT22;24910;53.248;-6.134;2023-09-19T02:53:45;14.60;90.50
38684;DHT22;24910;53.248;-6.134;2023-09-19T02:56:15;14.60;90.50
38684;DHT22;24910;53.248;-6.134;2023-09-19T02:58:44;14.60;90.50
38684;DHT22;24910;53.248;-6.134;2023-09-19T03:01:16;14.60;90.50
38684;DHT22;24910;53.248;-6.134;2023-09-19T03:03:46;14.60;90.50
38684;DHT22;24910;53.248;-6.134;2023-09-19T03:06:15;14.60;90.40
38684;DHT22;24910;53.248;-6.134;2023-09-19T03:08:47;14.70;90.50
38684;DHT22;24910;53.248;-6.134;2023-09-19T03:11:22;14.60;90.40
38684;DHT22;24910;53.248;-6.134;2023-09-19T03:13:56;14.60;90.50
38684;DHT22;24910;53.248;-6.134;2023-09-19T03:16:27;14.60;90.60
38684;DHT22;24910;53.248;-6.134;2023-09-19T03:18:58;14.60;90.60
38684;DHT22;24910;53.248;-6.134;2023-09-19T03:21:30;14.60;90.60
38684;DHT22;24910;53.248;-6.134;2023-09-19T03:23:59;14.60;90.60
38684;DHT22;24910;53.248;-6.134;2023-09-19T03:26:28;14.60;90.60
38684;DHT22;24910;53.248;-6.134;2023-09-19T03:28:57;14.60;90.60
38684;DHT22;24910;53.248;-6.134;2023-09-19T03:31:27;14.60;90.60
38684;DHT22;24910;53.248;-6.134;2023-09-19T03:33:58;14.60;90.60
38684;DHT22;24910;53.248;-6.134;2023-09-19T03:36:28;14.60;90.60
38684;DHT22;24910;53.248;-6.134;2023-09-19T03:38:57;14.60;90.60
38684;DHT22;24910;53.248;-6.134;2023-09-19T03:41:27;14.70;90.60
38684;DHT22;24910;53.248;-6.134;2023-09-19T03:43:56;14.60;90.60
38684;DHT22;24910;53.248;-6.134;2023-09-19T03:46:25;14.60;90.60
38684;DHT22;24910;53.248;-6.134;2023-09-19T03:48:56;14.70;90.70
38684;DHT22;24910;53.248;-6.134;2023-09-19T03:51:25;14.60;90.70
38684;DHT22;24910;53.248;-6.134;2023-09-19T03:53:54;14.60;90.70
38684;DHT22;24910;53.248;-6.134;2023-09-19T03:56:23;14.60;90.80
38684;DHT22;24910;53.248;-6.134;2023-09-19T03:58:52;14.60;90.80
38684;DHT22;24910;53.248;-6.134;2023-09-19T04:01:21;14.60;90.80
38684;DHT22;24910;53.248;-6.134;2023-09-19T04:03:51;14.60;90.80
38684;DHT22;24910;53.248;-6.134;2023-09-19T04:06:22;14.70;90.90
38684;DHT22;24910;53.248;-6.134;2023-09-19T04:08:52;14.80;90.90
38684;DHT22;24910;53.248;-6.134;2023-09-19T04:11:22;14.80;90.80
38684;DHT22;24910;53.248;-6.134;2023-09-19T04:13:51;14.90;90.90
38684;DHT22;24910;53.248;-6.134;2023-09-19T04:16:20;15.00;90.90
38684;DHT22;24910;53.248;-6.134;2023-09-19T04:18:49;15.10;90.90
38684;DHT22;24910;53.248;-6.134;2023-09-19T04:21:18;15.20;90.90
38684;DHT22;24910;53.248;-6.134;2023-09-19T04:23:48;15.30;90.90
38684;DHT22;24910;53.248;-6.134;2023-09-19T04:26:17;15.30;90.90
38684;DHT22;24910;53.248;-6.134;2023-09-19T04:28:46;15.40;91.00
38684;DHT22;24910;53.248;-6.134;2023-09-19T04:31:15;15.40;91.00
38684;DHT22;24910;53.248;-6.134;2023-09-19T04:33:46;15.50;91.00
38684;DHT22;24910;53.248;-6.134;2023-09-19T04:36:15;15.50;91.00
38684;DHT22;24910;53.248;-6.134;2023-09-19T04:39:03;15.60;91.10
38684;DHT22;24910;53.248;-6.134;2023-09-19T04:41:35;15.60;91.10
38684;DHT22;24910;53.248;-6.134;2023-09-19T04:44:04;15.70;91.20
38684;DHT22;24910;53.248;-6.134;2023-09-19T04:46:33;15.70;91.10
38684;DHT22;24910;53.248;-6.134;2023-09-19T04:49:02;15.70;91.10
38684;DHT22;24910;53.248;-6.134;2023-09-19T04:51:32;15.80;91.20
38684;DHT22;24910;53.248;-6.134;2023-09-19T04:54:05;15.80;91.20
38684;DHT22;24910;53.248;-6.134;2023-09-19T04:56:35;15.90;91.30
38684;DHT22;24910;53.248;-6.134;2023-09-19T04:59:08;15.90;91.30
38684;DHT22;24910;53.248;-6.134;2023-09-19T05:01:38;15.90;91.30
38684;DHT22;24910;53.248;-6.134;2023-09-19T05:04:08;16.00;91.40
38684;DHT22;24910;53.248;-6.134;2023-09-19T05:06:37;16.00;91.40
38684;DHT22;24910;53.248;-6.134;2023-09-19T05:09:07;16.00;91.40
38684;DHT22;24910;53.248;-6.134;2023-09-19T05:11:36;16.10;91.40
38684;DHT22;24910;53.248;-6.134;2023-09-19T05:14:06;16.10;91.40
38684;DHT22;24910;53.248;-6.134;2023-09-19T05:16:35;16.10;91.40
38684;DHT22;24910;53.248;-6.134;2023-09-19T05:19:04;16.20;91.40
38684;DHT22;24910;53.248;-6.134;2023-09-19T05:21:33;16.20;91.50
38684;DHT22;24910;53.248;-6.134;2023-09-19T05:24:02;16.20;91.50
38684;DHT22;24910;53.248;-6.134;2023-09-19T05:26:32;16.20;91.50
38684;DHT22;24910;53.248;-6.134;2023-09-19T05:29:01;16.30;91.60
38684;DHT22;24910;53.248;-6.134;2023-09-19T05:31:31;16.30;91.60
38684;DHT22;24910;53.248;-6.134;2023-09-19T05:34:00;16.30;91.60
38684;DHT22;24910;53.248;-6.134;2023-09-19T05:36:29;16.40;91.60
38684;DHT22;24910;53.248;-6.134;2023-09-19T05:38:58;16.40;91.70
38684;DHT22;24910;53.248;-6.134;2023-09-19T05:41:27;16.40;91.60
38684;DHT22;24910;53.248;-6.134;2023-09-19T05:43:57;16.50;91.70
38684;DHT22;24910;53.248;-6.134;2023-09-19T05:46:30;16.50;91.70
38684;DHT22;24910;53.248;-6.134;2023-09-19T05:48:59;16.50;91.70
38684;DHT22;24910;53.248;-6.134;2023-09-19T05:51:28;16.50;91.70
38684;DHT22;24910;53.248;-6.134;2023-09-19T05:53:57;16.60;91.80
38684;DHT22;24910;53.248;-6.134;2023-09-19T05:56:26;16.60;91.80
38684;DHT22;24910;53.248;-6.134;2023-09-19T05:58:55;16.60;91.80
38684;DHT22;24910;53.248;-6.134;2023-09-19T06:01:26;16.60;91.70
38684;DHT22;24910;53.248;-6.134;2023-09-19T06:03:55;16.60;91.80
38684;DHT22;24910;53.248;-6.134;2023-09-19T06:06:24;16.60;91.80
38684;DHT22;24910;53.248;-6.134;2023-09-19T06:08:53;16.70;91.90
38684;DHT22;24910;53.248;-6.134;2023-09-19T06:11:22;16.60;91.90
38684;DHT22;24910;53.248;-6.134;2023-09-19T06:13:54;16.60;91.90
38684;DHT22;24910;53.248;-6.134;2023-09-19T06:16:23;16.60;91.90
38684;DHT22;24910;53.248;-6.134;2023-09-19T06:18:55;16.60;92.30
38684;DHT22;24910;53.248;-6.134;2023-09-19T06:21:24;16.70;92.00
38684;DHT22;24910;53.248;-6.134;2023-09-19T06:23:54;16.70;92.00
38684;DHT22;24910;53.248;-6.134;2023-09-19T06:26:23;16.70;92.00
38684;DHT22;24910;53.248;-6.134;2023-09-19T06:28:54;16.70;92.00
38684;DHT22;24910;53.248;-6.134;2023-09-19T06:31:23;16.80;92.10
38684;DHT22;24910;53.248;-6.134;2023-09-19T06:33:58;16.80;92.10
38684;DHT22;24910;53.248;-6.134;2023-09-19T06:36:27;16.80;92.10
38684;DHT22;24910;53.248;-6.134;2023-09-19T06:38:56;16.80;92.10
38684;DHT22;24910;53.248;-6.134;2023-09-19T06:41:25;16.90;92.20
38684;DHT22;24910;53.248;-6.134;2023-09-19T06:43:54;16.90;92.20
38684;DHT22;24910;53.248;-6.134;2023-09-19T06:46:23;16.90;92.20
38684;DHT22;24910;53.248;-6.134;2023-09-19T06:48:52;16.90;92.10
38684;DHT22;24910;53.248;-6.134;2023-09-19T06:51:22;16.90;92.10
38684;DHT22;24910;53.248;-6.134;2023-09-19T06:53:51;17.00;92.20
38684;DHT22;24910;53.248;-6.134;2023-09-19T06:56:22;17.00;92.10
38684;DHT22;24910;53.248;-6.134;2023-09-19T06:58:52;17.00;92.20
38684;DHT22;24910;53.248;-6.134;2023-09-19T07:01:22;17.10;92.10
38684;DHT22;24910;53.248;-6.134;2023-09-19T07:03:51;17.10;92.10
38684;DHT22;24910;53.248;-6.134;2023-09-19T07:06:20;17.10;92.20
38684;DHT22;24910;53.248;-6.134;2023-09-19T07:08:51;17.10;92.10
38684;DHT22;24910;53.248;-6.134;2023-09-19T07:11:20;17.20;92.20
38684;DHT22;24910;53.248;-6.134;2023-09-19T07:13:50;17.20;92.20
38684;DHT22;24910;53.248;-6.134;2023-09-19T07:16:19;17.30;92.20
38684;DHT22;24910;53.248;-6.134;2023-09-19T07:18:57;17.30;92.20
38684;DHT22;24910;53.248;-6.134;2023-09-19T07:21:27;17.30;92.30
38684;DHT22;24910;53.248;-6.134;2023-09-19T07:24:01;17.30;92.30
38684;DHT22;24910;53.248;-6.134;2023-09-19T07:26:30;17.30;92.30
38684;DHT22;24910;53.248;-6.134;2023-09-19T07:28:59;17.40;92.30
38684;DHT22;24910;53.248;-6.134;2023-09-19T07:31:30;17.40;92.40
38684;DHT22;24910;53.248;-6.134;2023-09-19T07:33:59;17.40;92.30
38684;DHT22;24910;53.248;-6.134;2023-09-19T07:36:33;17.40;92.30
38684;DHT22;24910;53.248;-6.134;2023-09-19T07:39:06;17.50;92.30
38684;DHT22;24910;53.248;-6.134;2023-09-19T07:41:49;17.50;92.30
38684;DHT22;24910;53.248;-6.134;2023-09-19T07:44:18;17.50;92.40
38684;DHT22;24910;53.248;-6.134;2023-09-19T07:46:47;17.50;92.40
38684;DHT22;24910;53.248;-6.134;2023-09-19T07:49:18;17.50;92.40
38684;DHT22;24910;53.248;-6.134;2023-09-19T07:51:48;17.50;92.40
38684;DHT22;24910;53.248;-6.134;2023-09-19T07:54:18;17.60;92.40
38684;DHT22;24910;53.248;-6.134;2023-09-19T07:56:49;17.50;92.30
38684;DHT22;24910;53.248;-6.134;2023-09-19T07:59:17;17.60;92.40
38684;DHT22;24910;53.248;-6.134;2023-09-19T08:01:47;17.60;92.40
38684;DHT22;24910;53.248;-6.134;2023-09-19T08:04:16;17.60;92.40
38684;DHT22;24910;53.248;-6.134;2023-09-19T08:06:49;17.60;92.40
38684;DHT22;24910;53.248;-6.134;2023-09-19T08:09:23;17.70;92.40
38684;DHT22;24910;53.248;-6.134;2023-09-19T08:11:52;17.70;92.40
38684;DHT22;24910;53.248;-6.134;2023-09-19T08:14:21;17.70;92.40
38684;DHT22;24910;53.248;-6.134;2023-09-19T08:16:55;17.70;92.40
38684;DHT22;24910;53.248;-6.134;2023-09-19T08:19:25;17.70;92.40
38684;DHT22;24910;53.248;-6.134;2023-09-19T08:21:56;17.80;92.40
38684;DHT22;24910;53.248;-6.134;2023-09-19T08:24:27;17.80;92.40
38684;DHT22;24910;53.248;-6.134;2023-09-19T08:26:56;17.90;92.50
38684;DHT22;24910;53.248;-6.134;2023-09-19T08:29:26;17.90;92.50
38684;DHT22;24910;53.248;-6.134;2023-09-19T08:31:57;17.90;92.40
38684;DHT22;24910;53.248;-6.134;2023-09-19T08:34:26;17.90;92.40
38684;DHT22;24910;53.248;-6.134;2023-09-19T08:36:55;17.90;92.40
38684;DHT22;24910;53.248;-6.134;2023-09-19T08:39:28;18.00;92.50
38684;DHT22;24910;53.248;-6.134;2023-09-19T08:41:58;18.00;92.50
38684;DHT22;24910;53.248;-6.134;2023-09-19T08:44:27;18.00;92.50
38684;DHT22;24910;53.248;-6.134;2023-09-19T08:47:01;18.10;92.50
38684;DHT22;24910;53.248;-6.134;2023-09-19T08:49:41;18.10;92.50
38684;DHT22;24910;53.248;-6.134;2023-09-19T08:52:13;18.10;92.50
38684;DHT22;24910;53.248;-6.134;2023-09-19T08:54:46;18.20;92.50
38684;DHT22;24910;53.248;-6.134;2023-09-19T08:57:19;18.20;92.50
38684;DHT22;24910;53.248;-6.134;2023-09-19T08:59:53;18.20;92.40
38684;DHT22;24910;53.248;-6.134;2023-09-19T09:02:23;18.30;92.50
38684;DHT22;24910;53.248;-6.134;2023-09-19T09:04:55;18.30;92.40
38684;DHT22;24910;53.248;-6.134;2023-09-19T09:07:28;18.40;92.40
38684;DHT22;24910;53.248;-6.134;2023-09-19T09:09:59;18.40;92.40
38684;DHT22;24910;53.248;-6.134;2023-09-19T09:12:30;18.50;92.40
38684;DHT22;24910;53.248;-6.134;2023-09-19T09:15:00;18.50;92.40
38684;DHT22;24910;53.248;-6.134;2023-09-19T09:17:31;18.50;92.40
38684;DHT22;24910;53.248;-6.134;2023-09-19T09:20:01;18.50;92.30
38684;DHT22;24910;53.248;-6.134;2023-09-19T09:22:39;18.50;92.30
38684;DHT22;24910;53.248;-6.134;2023-09-19T09:28:11;18.60;92.30
38684;DHT22;24910;53.248;-6.134;2023-09-19T09:30:47;18.60;92.30
38684;DHT22;24910;53.248;-6.134;2023-09-19T09:33:17;18.60;92.40
38684;DHT22;24910;53.248;-6.134;2023-09-19T09:35:51;18.60;92.40
38684;DHT22;24910;53.248;-6.134;2023-09-19T09:38:25;18.60;92.40
38684;DHT22;24910;53.248;-6.134;2023-09-19T09:40:58;18.50;92.40
38684;DHT22;24910;53.248;-6.134;2023-09-19T09:43:33;18.50;92.40
38684;DHT22;24910;53.248;-6.134;2023-09-19T09:46:15;18.50;92.50
38684;DHT22;24910;53.248;-6.134;2023-09-19T09:49:02;18.50;92.50
38684;DHT22;24910;53.248;-6.134;2023-09-19T09:51:48;18.50;92.60
38684;DHT22;24910;53.248;-6.134;2023-09-19T09:54:26;18.50;92.60
38684;DHT22;24910;53.248;-6.134;2023-09-19T09:57:02;18.50;92.60
38684;DHT22;24910;53.248;-6.134;2023-09-19T09:59:47;18.50;92.60
38684;DHT22;24910;53.248;-6.134;2023-09-19T10:02:17;18.50;92.60
38684;DHT22;24910;53.248;-6.134;2023-09-19T10:04:52;18.60;92.60
38684;DHT22;24910;53.248;-6.134;2023-09-19T10:07:28;18.60;92.60
38684;DHT22;24910;53.248;-6.134;2023-09-19T10:10:00;18.60;92.50
38684;DHT22;24910;53.248;-6.134;2023-09-19T10:12:41;18.60;92.60
38684;DHT22;24910;53.248;-6.134;2023-09-19T10:15:16;18.70;92.60
38684;DHT22;24910;53.248;-6.134;2023-09-19T10:17:48;18.70;92.60
38684;DHT22;24910;53.248;-6.134;2023-09-19T10:20:17;18.70;92.60
38684;DHT22;24910;53.248;-6.134;2023-09-19T10:23:06;18.70;92.60
38684;DHT22;24910;53.248;-6.134;2023-09-19T10:25:41;18.80;92.60
38684;DHT22;24910;53.248;-6.134;2023-09-19T10:28:13;18.80;92.60
38684;DHT22;24910;53.248;-6.134;2023-09-19T10:30:44;18.80;92.60
38684;DHT22;24910;53.248;-6.134;2023-09-19T10:33:15;18.80;92.60
38684;DHT22;24910;53.248;-6.134;2023-09-19T10:35:48;18.80;92.70
38684;DHT22;24910;53.248;-6.134;2023-09-19T10:38:19;18.80;92.60
38684;DHT22;24910;53.248;-6.134;2023-09-19T10:40:50;18.80;92.70
38684;DHT22;24910;53.248;-6.134;2023-09-19T10:43:20;18.90;92.70
38684;DHT22;24910;53.248;-6.134;2023-09-19T10:45:51;18.90;92.70
38684;DHT22;24910;53.248;-6.134;2023-09-19T10:48:23;19.00;92.70
38684;DHT22;24910;53.248;-6.134;2023-09-19T10:50:56;19.00;92.60
38684;DHT22;24910;53.248;-6.134;2023-09-19T10:53:28;19.10;92.60
38684;DHT22;24910;53.248;-6.134;2023-09-19T10:55:59;19.10;92.60
38684;DHT22;24910;53.248;-6.134;2023-09-19T10:58:28;19.10;92.60
38684;DHT22;24910;53.248;-6.134;2023-09-19T11:00:59;19.20;92.60
38684;DHT22;24910;53.248;-6.134;2023-09-19T11:03:35;19.10;92.50
38684;DHT22;24910;53.248;-6.134;2023-09-19T11:06:11;19.10;92.60
38684;DHT22;24910;53.248;-6.134;2023-09-19T11:08:51;19.10;92.60
38684;DHT22;24910;53.248;-6.134;2023-09-19T11:14:44;19.10;92.60
38684;DHT22;24910;53.248;-6.134;2023-09-19T11:20:18;19.20;92.70
38684;DHT22;24910;53.248;-6.134;2023-09-19T11:25:45;19.20;92.70
38684;DHT22;24910;53.248;-6.134;2023-09-19T11:28:28;19.30;92.70
38684;DHT22;24910;53.248;-6.134;2023-09-19T11:33:50;19.30;92.60
38684;DHT22;24910;53.248;-6.134;2023-09-19T11:36:41;19.40;92.70
38684;DHT22;24910;53.248;-6.134;2023-09-19T11:39:24;19.30;92.70
38684;DHT22;24910;53.248;-6.134;2023-09-19T11:41:54;19.40;92.70
38684;DHT22;24910;53.248;-6.134;2023-09-19T11:44:34;19.40;92.70
38684;DHT22;24910;53.248;-6.134;2023-09-19T11:47:08;19.40;92.70
38684;DHT22;24910;53.248;-6.134;2023-09-19T11:49:42;19.40;92.70
38684;DHT22;24910;53.248;-6.134;2023-09-19T11:52:22;19.40;92.70
38684;DHT22;24910;53.248;-6.134;2023-09-19T11:54:55;19.40;92.60
38684;DHT22;24910;53.248;-6.134;2023-09-19T11:57:28;19.50;92.70
38684;DHT22;24910;53.248;-6.134;2023-09-19T12:00:00;19.50;92.70
38684;DHT22;24910;53.248;-6.134;2023-09-19T12:02:39;19.40;92.70
38684;DHT22;24910;53.248;-6.134;2023-09-19T12:05:09;19.40;92.70
38684;DHT22;24910;53.248;-6.134;2023-09-19T12:07:45;19.40;93.00
38684;DHT22;24910;53.248;-6.134;2023-09-19T12:10:16;19.50;92.70
38684;DHT22;24910;53.248;-6.134;2023-09-19T12:12:47;19.50;92.70
38684;DHT22;24910;53.248;-6.134;2023-09-19T12:15:22;19.40;92.70
38684;DHT22;24910;53.248;-6.134;2023-09-19T12:17:54;19.50;92.70
38684;DHT22;24910;53.248;-6.134;2023-09-19T12:20:40;19.50;92.70
38684;DHT22;24910;53.248;-6.134;2023-09-19T12:23:16;19.50;92.70
38684;DHT22;24910;53.248;-6.134;2023-09-19T12:25:47;19.50;92.70
38684;DHT22;24910;53.248;-6.134;2023-09-19T12:28:20;19.50;92.70
38684;DHT22;24910;53.248;-6.134;2023-09-19T12:30:53;19.60;92.70
38684;DHT22;24910;53.248;-6.134;2023-09-19T12:33:25;19.60;92.70
38684;DHT22;24910;53.248;-6.134;2023-09-19T12:35:54;19.60;92.70
38684;DHT22;24910;53.248;-6.134;2023-09-19T12:38:25;19.70;92.60
38684;DHT22;24910;53.248;-6.134;2023-09-19T12:40:56;19.70;92.60
38684;DHT22;24910;53.248;-6.134;2023-09-19T12:43:28;19.70;92.60
38684;DHT22;24910;53.248;-6.134;2023-09-19T12:46:03;19.80;92.60
38684;DHT22;24910;53.248;-6.134;2023-09-19T12:48:33;19.80;93.00
38684;DHT22;24910;53.248;-6.134;2023-09-19T12:51:03;19.80;92.60
38684;DHT22;24910;53.248;-6.134;2023-09-19T12:53:37;19.80;92.70
38684;DHT22;24910;53.248;-6.134;2023-09-19T12:56:12;19.80;92.70
38684;DHT22;24910;53.248;-6.134;2023-09-19T12:58:50;19.70;92.70
38684;DHT22;24910;53.248;-6.134;2023-09-19T13:01:22;19.70;92.70
38684;DHT22;24910;53.248;-6.134;2023-09-19T13:04:15;19.70;92.60
38684;DHT22;24910;53.248;-6.134;2023-09-19T13:06:46;19.70;92.70
38684;DHT22;24910;53.248;-6.134;2023-09-19T13:09:19;19.80;92.70
38684;DHT22;24910;53.248;-6.134;2023-09-19T13:11:48;19.80;92.70
38684;DHT22;24910;53.248;-6.134;2023-09-19T13:14:19;19.80;92.70
38684;DHT22;24910;53.248;-6.134;2023-09-19T13:16:55;19.80;92.70
38684;DHT22;24910;53.248;-6.134;2023-09-19T13:19:34;19.80;92.70
38684;DHT22;24910;53.248;-6.134;2023-09-19T13:22:03;19.90;92.70
38684;DHT22;24910;53.248;-6.134;2023-09-19T13:24:34;19.80;92.70
38684;DHT22;24910;53.248;-6.134;2023-09-19T13:27:08;19.80;92.70
38684;DHT22;24910;53.248;-6.134;2023-09-19T13:29:37;19.90;92.70
38684;DHT22;24910;53.248;-6.134;2023-09-19T13:32:06;19.90;92.70
38684;DHT22;24910;53.248;-6.134;2023-09-19T13:34:35;19.90;92.60
38684;DHT22;24910;53.248;-6.134;2023-09-19T13:37:05;19.90;92.70
38684;DHT22;24910;53.248;-6.134;2023-09-19T13:39:35;19.90;93.10
38684;DHT22;24910;53.248;-6.134;2023-09-19T13:42:05;20.00;93.10
38684;DHT22;24910;53.248;-6.134;2023-09-19T13:44:34;20.00;92.70
38684;DHT22;24910;53.248;-6.134;2023-09-19T13:47:03;20.00;92.60
38684;DHT22;24910;53.248;-6.134;2023-09-19T13:49:37;20.10;92.70
38684;DHT22;24910;53.248;-6.134;2023-09-19T13:52:06;20.20;92.60
38684;DHT22;24910;53.248;-6.134;2023-09-19T13:54:36;20.30;92.60
38684;DHT22;24910;53.248;-6.134;2023-09-19T13:57:05;20.30;92.50
38684;DHT22;24910;53.248;-6.134;2023-09-19T13:59:37;20.40;92.40
38684;DHT22;24910;53.248;-6.134;2023-09-19T14:02:06;20.50;92.40
38684;DHT22;24910;53.248;-6.134;2023-09-19T14:04:35;20.60;92.40
38684;DHT22;24910;53.248;-6.134;2023-09-19T14:07:04;20.60;92.30
38684;DHT22;24910;53.248;-6.134;2023-09-19T14:09:34;20.60;92.30
38684;DHT22;24910;53.248;-6.134;2023-09-19T14:12:05;20.70;92.20
38684;DHT22;24910;53.248;-6.134;2023-09-19T14:14:35;20.70;92.20
38684;DHT22;24910;53.248;-6.134;2023-09-19T14:17:04;20.60;92.30
38684;DHT22;24910;53.248;-6.134;2023-09-19T14:19:34;20.60;92.30
38684;DHT22;24910;53.248;-6.134;2023-09-19T14:22:04;20.50;92.40
38684;DHT22;24910;53.248;-6.134;2023-09-19T14:24:35;20.60;92.50
38684;DHT22;24910;53.248;-6.134;2023-09-19T14:27:06;20.60;92.50
38684;DHT22;24910;53.248;-6.134;2023-09-19T14:29:36;20.70;92.30
38684;DHT22;24910;53.248;-6.134;2023-09-19T14:32:05;20.80;92.20
38684;DHT22;24910;53.248;-6.134;2023-09-19T14:34:34;20.90;92.20
38684;DHT22;24910;53.248;-6.134;2023-09-19T14:37:09;20.90;92.10
38684;DHT22;24910;53.248;-6.134;2023-09-19T14:39:38;21.00;92.00
38684;DHT22;24910;53.248;-6.134;2023-09-19T14:42:09;21.10;92.00
38684;DHT22;24910;53.248;-6.134;2023-09-19T14:44:39;21.10;91.90
38684;DHT22;24910;53.248;-6.134;2023-09-19T14:47:08;21.10;91.90
38684;DHT22;24910;53.248;-6.134;2023-09-19T14:49:41;21.10;91.90
38684;DHT22;24910;53.248;-6.134;2023-09-19T14:52:11;21.20;91.90
38684;DHT22;24910;53.248;-6.134;2023-09-19T14:54:43;21.20;91.80
38684;DHT22;24910;53.248;-6.134;2023-09-19T14:57:14;21.20;91.80
38684;DHT22;24910;53.248;-6.134;2023-09-19T14:59:43;21.30;91.80
38684;DHT22;24910;53.248;-6.134;2023-09-19T15:02:12;21.30;91.70
38684;DHT22;24910;53.248;-6.134;2023-09-19T15:04:41;21.40;91.70
38684;DHT22;24910;53.248;-6.134;2023-09-19T15:07:12;21.40;91.60
38684;DHT22;24910;53.248;-6.134;2023-09-19T15:09:42;21.50;91.60
38684;DHT22;24910;53.248;-6.134;2023-09-19T15:12:11;21.50;91.60
38684;DHT22;24910;53.248;-6.134;2023-09-19T15:14:43;21.50;91.60
38684;DHT22;24910;53.248;-6.134;2023-09-19T15:17:12;21.50;91.60
38684;DHT22;24910;53.248;-6.134;2023-09-19T15:19:41;21.50;91.60
38684;DHT22;24910;53.248;-6.134;2023-09-19T15:23:22;21.50;91.20
38684;DHT22;24910;53.248;-6.134;2023-09-19T15:27:39;21.40;91.50
38684;DHT22;24910;53.248;-6.134;2023-09-19T15:30:10;21.40;91.60
38684;DHT22;24910;53.248;-6.134;2023-09-19T15:32:39;21.40;91.70
38684;DHT22;24910;53.248;-6.134;2023-09-19T15:35:08;21.40;91.70
38684;DHT22;24910;53.248;-6.134;2023-09-19T15:37:41;21.40;91.60
38684;DHT22;24910;53.248;-6.134;2023-09-19T15:40:10;21.50;91.60
38684;DHT22;24910;53.248;-6.134;2023-09-19T15:42:41;21.50;91.50
38684;DHT22;24910;53.248;-6.134;2023-09-19T15:45:11;21.50;91.40
38684;DHT22;24910;53.248;-6.134;2023-09-19T15:47:40;21.50;91.40
38684;DHT22;24910;53.248;-6.134;2023-09-19T15:50:11;21.50;91.40
38684;DHT22;24910;53.248;-6.134;2023-09-19T15:52:41;21.50;91.40
38684;DHT22;24910;53.248;-6.134;2023-09-19T15:55:11;21.50;91.40
38684;DHT22;24910;53.248;-6.134;2023-09-19T15:57:41;21.50;91.30
38684;DHT22;24910;53.248;-6.134;2023-09-19T16:00:12;21.50;91.30
38684;DHT22;24910;53.248;-6.134;2023-09-19T16:02:46;21.40;91.30
38684;DHT22;24910;53.248;-6.134;2023-09-19T16:05:18;21.40;91.30